Time;durP1;ratioP1;P1;durP2;ratioP2;P2;SDS_P1;SDS_P2;PMS_P1;PMS_P2;Temp;Humidity;BMP_temperature;BMP_pressure;BME280_temperature;BME280_humidity;BME280_pressure;Samples;Min_cycle;Max_cycle;Signal;HPM_P1;HPM_P2
2023/03/20 00:02:19;;;;;;;28.13;12.27;;;;;;;;;;5043436;28;20513;-56
2023/03/20 00:04:44;;;;;;;25.70;13.25;;;;;;;;;;5043429;28;20043;-54
2023/03/20 00:07:11;;;;;;;26.55;13.48;;;;;;;;;;5043732;28;20025;-54
2023/03/20 00:09:37;;;;;;;27.85;14.02;;;;;;;;;;4994403;28;20124;-55
2023/03/20 00:12:02;;;;;;;29.77;13.30;;;;;;;;;;5043510;28;20644;-56
2023/03/20 00:14:27;;;;;;;29.70;13.77;;;;;;;;;;5040570;28;20029;-55
2023/03/20 00:16:53;;;;;;;26.08;13.63;;;;;;;;;;5026730;28;20033;-58
2023/03/20 00:19:22;;;;;;;23.63;13.63;;;;;;;;;;5026489;28;20109;-57
2023/03/20 00:21:48;;;;;;;29.40;14.43;;;;;;;;;;5026334;28;20121;-58
2023/03/20 00:24:14;;;;;;;29.75;13.38;;;;;;;;;;5026468;28;20148;-55
2023/03/20 00:26:39;;;;;;;28.70;14.02;;;;;;;;;;5026202;28;20498;-56
2023/03/20 00:29:06;;;;;;;25.55;13.95;;;;;;;;;;5026562;28;20030;-58
2023/03/20 00:31:36;;;;;;;28.60;13.38;;;;;;;;;;5026043;28;20041;-57
2023/03/20 00:34:02;;;;;;;26.30;13.88;;;;;;;;;;5003302;28;20559;-56
2023/03/20 00:36:28;;;;;;;30.02;14.07;;;;;;;;;;5003657;28;20037;-53
2023/03/20 00:38:53;;;;;;;27.85;15.00;;;;;;;;;;5003246;28;20427;-53
2023/03/20 00:41:21;;;;;;;30.42;14.55;;;;;;;;;;5003293;28;20553;-58
2023/03/20 00:43:48;;;;;;;29.27;14.45;;;;;;;;;;5003490;28;20030;-57
2023/03/20 00:46:13;;;;;;;35.63;15.27;;;;;;;;;;5003224;28;20030;-56
2023/03/20 00:48:40;;;;;;;30.02;15.00;;;;;;;;;;5003020;28;20029;-56
2023/03/20 00:51:05;;;;;;;30.40;13.93;;;;;;;;;;5003149;28;20048;-56
2023/03/20 00:53:31;;;;;;;25.40;15.10;;;;;;;;;;5003266;28;20510;-57
2023/03/20 00:55:56;;;;;;;33.50;15.50;;;;;;;;;;5002852;28;20073;-56
2023/03/20 00:58:21;;;;;;;27.33;13.45;;;;;;;;;;5003174;28;20113;-57
2023/03/20 01:00:47;;;;;;;28.83;13.98;;;;;;;;;;5003028;28;20519;-56
2023/03/20 01:03:14;;;;;;;27.75;13.95;;;;;;;;;;4970324;28;20061;-56
2023/03/20 01:05:40;;;;;;;26.55;14.48;;;;;;;;;;5019901;28;20467;-56
2023/03/20 01:08:11;;;;;;;23.08;13.18;;;;;;;;;;5025639;28;20075;-57
2023/03/20 01:10:36;;;;;;;28.10;13.40;;;;;;;;;;5025915;28;20398;-58
2023/03/20 01:13:01;;;;;;;31.52;12.35;;;;;;;;;;5025789;28;20035;-55
2023/03/20 01:15:30;;;;;;;23.15;12.55;;;;;;;;;;5025965;28;20108;-56
2023/03/20 01:17:55;;;;;;;28.70;13.30;;;;;;;;;;5025685;28;20597;-57
2023/03/20 01:20:23;;;;;;;22.42;12.63;;;;;;;;;;5025464;28;20834;-58
2023/03/20 01:22:48;;;;;;;23.67;12.95;;;;;;;;;;5025338;28;20113;-54
2023/03/20 01:25:14;;;;;;;27.35;13.38;;;;;;;;;;5025686;28;20120;-53
2023/03/20 01:27:40;;;;;;;26.40;13.57;;;;;;;;;;5025695;28;20329;-56
2023/03/20 01:30:14;;;;;;;28.02;12.73;;;;;;;;;;5025326;28;20352;-55
2023/03/20 01:32:40;;;;;;;24.05;13.07;;;;;;;;;;5025813;28;20029;-58
2023/03/20 01:35:06;;;;;;;28.98;12.77;;;;;;;;;;5025852;28;20040;-57
2023/03/20 01:37:32;;;;;;;24.30;11.85;;;;;;;;;;5025406;28;20368;-53
2023/03/20 01:39:57;;;;;;;23.10;13.45;;;;;;;;;;5025488;28;20024;-59
2023/03/20 01:42:22;;;;;;;24.70;12.73;;;;;;;;;;5040323;28;20364;-53
2023/03/20 01:44:48;;;;;;;21.80;11.40;;;;;;;;;;5025374;28;20029;-59
2023/03/20 01:47:18;;;;;;;29.83;13.07;;;;;;;;;;5025207;28;20735;-57
2023/03/20 01:50:02;;;;;;;28.85;13.52;;;;;;;;;;5025059;28;20032;-56
2023/03/20 01:52:28;;;;;;;26.08;12.82;;;;;;;;;;5025599;28;20123;-56
2023/03/20 01:54:53;;;;;;;24.48;12.30;;;;;;;;;;5025231;28;20049;-57
2023/03/20 01:57:22;;;;;;;24.90;13.35;;;;;;;;;;5024968;28;20087;-57
2023/03/20 01:59:47;;;;;;;23.70;12.30;;;;;;;;;;5025388;28;20030;-57
2023/03/20 02:02:14;;;;;;;23.38;12.60;;;;;;;;;;5026821;28;20033;-56
2023/03/20 02:04:41;;;;;;;23.25;12.20;;;;;;;;;;5028645;28;20030;-57
2023/03/20 02:07:09;;;;;;;24.98;13.25;;;;;;;;;;5029007;28;20071;-57
2023/03/20 02:09:34;;;;;;;26.15;13.30;;;;;;;;;;5029006;28;20049;-57
2023/03/20 02:12:00;;;;;;;28.08;13.30;;;;;;;;;;5029319;28;20029;-55
2023/03/20 02:14:25;;;;;;;27.98;12.88;;;;;;;;;;5028840;28;20021;-54
2023/03/20 02:16:51;;;;;;;29.67;13.18;;;;;;;;;;5028794;28;20075;-58
2023/03/20 02:19:23;;;;;;;22.63;12.20;;;;;;;;;;5028520;28;20378;-56
2023/03/20 02:21:55;;;;;;;23.90;12.25;;;;;;;;;;5028772;28;20108;-57
2023/03/20 02:24:26;;;;;;;23.92;11.27;;;;;;;;;;5029030;28;20022;-54
2023/03/20 02:27:02;;;;;;;23.70;12.95;;;;;;;;;;5028627;28;20028;-56
2023/03/20 02:29:41;;;;;;;32.25;13.60;;;;;;;;;;5028339;28;20144;-58
2023/03/20 02:32:26;;;;;;;26.63;12.80;;;;;;;;;;5028400;28;20038;-52
2023/03/20 02:35:14;;;;;;;29.20;12.20;;;;;;;;;;5005684;28;20594;-54
2023/03/20 02:37:40;;;;;;;26.83;12.88;;;;;;;;;;5003980;28;20531;-56
2023/03/20 02:40:28;;;;;;;23.40;12.57;;;;;;;;;;5005575;28;20064;-57
2023/03/20 02:43:09;;;;;;;24.60;12.40;;;;;;;;;;5005563;28;20490;-56
2023/03/20 02:45:35;;;;;;;25.08;12.13;;;;;;;;;;5005803;28;20077;-53
2023/03/20 02:48:00;;;;;;;24.92;13.10;;;;;;;;;;4972838;28;20061;-55
2023/03/20 02:50:37;;;;;;;26.23;12.23;;;;;;;;;;5005570;28;20109;-57
2023/03/20 02:53:13;;;;;;;24.38;11.93;;;;;;;;;;5005434;28;20037;-57
2023/03/20 02:55:44;;;;;;;31.77;12.48;;;;;;;;;;5005831;28;20354;-59
2023/03/20 02:58:13;;;;;;;27.13;12.73;;;;;;;;;;5005286;28;20026;-56
2023/03/20 03:00:46;;;;;;;32.22;12.88;;;;;;;;;;5005295;28;20076;-55
2023/03/20 03:03:18;;;;;;;25.60;12.02;;;;;;;;;;5005189;28;20112;-57
2023/03/20 03:06:04;;;;;;;29.02;13.45;;;;;;;;;;5005362;28;20037;-57
2023/03/20 03:08:32;;;;;;;26.05;12.63;;;;;;;;;;5004954;28;20030;-57
2023/03/20 03:11:00;;;;;;;27.23;12.38;;;;;;;;;;5006594;28;20026;-56
2023/03/20 03:13:28;;;;;;;21.65;11.68;;;;;;;;;;5028442;28;20073;-54
2023/03/20 03:15:55;;;;;;;27.15;12.40;;;;;;;;;;5028372;28;20045;-53
2023/03/20 03:18:24;;;;;;;28.60;11.27;;;;;;;;;;5027764;28;20289;-56
2023/03/20 03:20:53;;;;;;;29.40;11.68;;;;;;;;;;5027400;28;20389;-57
2023/03/20 03:23:26;;;;;;;29.67;13.15;;;;;;;;;;5027355;28;20029;-58
2023/03/20 03:25:52;;;;;;;22.35;11.00;;;;;;;;;;5027712;28;20099;-57
2023/03/20 03:28:25;;;;;;;18.83;9.98;;;;;;;;;;5027847;28;20017;-57
2023/03/20 03:30:52;;;;;;;21.20;10.63;;;;;;;;;;5027374;28;20502;-57
2023/03/20 03:33:17;;;;;;;28.90;11.55;;;;;;;;;;5027505;28;20022;-56
2023/03/20 03:35:44;;;;;;;21.92;10.68;;;;;;;;;;5027897;28;20037;-58
2023/03/20 03:38:15;;;;;;;23.83;10.60;;;;;;;;;;5027519;28;20390;-58
2023/03/20 03:40:43;;;;;;;27.42;12.02;;;;;;;;;;5027155;28;20071;-57
2023/03/20 03:43:27;;;;;;;19.67;9.77;;;;;;;;;;5027270;28;20084;-56
2023/03/20 03:45:56;;;;;;;18.33;9.98;;;;;;;;;;5027281;28;20041;-56
2023/03/20 03:48:25;;;;;;;17.70;9.45;;;;;;;;;;5027289;28;20026;-57
2023/03/20 03:50:53;;;;;;;26.60;10.25;;;;;;;;;;5026834;28;20038;-57
2023/03/20 03:53:20;;;;;;;19.33;9.13;;;;;;;;;;5027336;28;20053;-57
2023/03/20 03:55:55;;;;;;;16.08;8.73;;;;;;;;;;5027249;28;20022;-56
2023/03/20 03:58:27;;;;;;;17.58;8.77;;;;;;;;;;5027073;28;20028;-54
2023/03/20 04:00:54;;;;;;;16.08;8.80;;;;;;;;;;5027181;28;20032;-56
2023/03/20 04:03:22;;;;;;;17.35;8.45;;;;;;;;;;5026959;28;20017;-55
2023/03/20 04:05:50;;;;;;;13.32;7.93;;;;;;;;;;5027028;28;20256;-55
2023/03/20 04:08:15;;;;;;;15.35;8.73;;;;;;;;;;5026905;28;20095;-57
2023/03/20 04:10:41;;;;;;;15.02;7.80;;;;;;;;;;5026987;28;20026;-57
2023/03/20 04:13:06;;;;;;;14.52;8.02;;;;;;;;;;5026925;28;20044;-57
2023/03/20 04:15:31;;;;;;;16.27;7.47;;;;;;;;;;5026602;28;20505;-57
2023/03/20 04:17:57;;;;;;;13.02;7.10;;;;;;;;;;5026586;28;20022;-56
2023/03/20 04:20:22;;;;;;;19.90;9.20;;;;;;;;;;5026544;28;20061;-56
2023/03/20 04:22:47;;;;;;;12.40;7.38;;;;;;;;;;5026534;28;20129;-56
2023/03/20 04:25:20;;;;;;;10.88;6.13;;;;;;;;;;5026289;28;20348;-57
2023/03/20 04:27:46;;;;;;;17.90;7.43;;;;;;;;;;5026521;28;20026;-57
2023/03/20 04:30:11;;;;;;;14.48;7.05;;;;;;;;;;5040448;28;20041;-56
2023/03/20 04:32:37;;;;;;;13.13;7.43;;;;;;;;;;5026714;28;20049;-57
2023/03/20 04:35:02;;;;;;;14.35;7.15;;;;;;;;;;5026429;28;20542;-57
2023/03/20 04:37:28;;;;;;;13.73;7.60;;;;;;;;;;5026040;28;20049;-57
2023/03/20 04:39:54;;;;;;;19.33;7.60;;;;;;;;;;5026402;28;20094;-55
2023/03/20 04:42:19;;;;;;;25.80;8.52;;;;;;;;;;5025844;28;20478;-52
2023/03/20 04:44:44;;;;;;;19.08;7.05;;;;;;;;;;5025874;28;20490;-56
2023/03/20 04:47:10;;;;;;;14.82;6.65;;;;;;;;;;5026096;28;20025;-55
2023/03/20 04:49:35;;;;;;;12.82;7.00;;;;;;;;;;5025820;28;20119;-56
2023/03/20 04:52:00;;;;;;;14.07;7.35;;;;;;;;;;5026025;28;20064;-57
2023/03/20 04:54:26;;;;;;;20.58;8.65;;;;;;;;;;5026166;28;20017;-57
2023/03/20 04:56:51;;;;;;;14.18;7.22;;;;;;;;;;5025947;28;20025;-56
2023/03/20 04:59:16;;;;;;;17.13;6.55;;;;;;;;;;5026270;28;20025;-55
2023/03/20 05:01:42;;;;;;;21.63;8.32;;;;;;;;;;5025805;28;20030;-55
2023/03/20 05:04:07;;;;;;;22.00;7.10;;;;;;;;;;5025821;28;20493;-55
2023/03/20 05:06:32;;;;;;;19.70;7.15;;;;;;;;;;5026088;28;20025;-56
2023/03/20 05:08:58;;;;;;;18.55;7.95;;;;;;;;;;5025747;28;20056;-56
2023/03/20 05:11:26;;;;;;;12.95;7.53;;;;;;;;;;5025634;28;20025;-56
2023/03/20 05:13:52;;;;;;;20.90;7.15;;;;;;;;;;5025642;28;20022;-56
2023/03/20 05:16:17;;;;;;;12.07;6.53;;;;;;;;;;5025766;28;20032;-55
2023/03/20 05:18:43;;;;;;;17.40;7.30;;;;;;;;;;5025820;28;20060;-56
2023/03/20 05:21:08;;;;;;;25.48;8.77;;;;;;;;;;5025166;28;20044;-58
2023/03/20 05:23:34;;;;;;;14.50;7.32;;;;;;;;;;5025487;28;20017;-55
2023/03/20 05:25:59;;;;;;;13.55;7.97;;;;;;;;;;5025790;28;20047;-53
2023/03/20 05:28:24;;;;;;;18.80;7.13;;;;;;;;;;5025233;28;20029;-56
2023/03/20 05:30:49;;;;;;;25.10;8.05;;;;;;;;;;5025337;28;20107;-55
2023/03/20 05:33:15;;;;;;;21.83;7.10;;;;;;;;;;5024430;28;20056;-58
2023/03/20 05:35:41;;;;;;;34.53;9.65;;;;;;;;;;5038825;28;20029;-54
2023/03/20 05:38:06;;;;;;;15.30;7.40;;;;;;;;;;5025051;28;20105;-55
2023/03/20 05:40:31;;;;;;;14.00;6.63;;;;;;;;;;5024872;28;20021;-54
2023/03/20 05:42:56;;;;;;;18.45;6.72;;;;;;;;;;5025029;28;20483;-54
2023/03/20 05:45:22;;;;;;;18.23;7.30;;;;;;;;;;5024877;28;20033;-57
2023/03/20 05:47:47;;;;;;;17.38;8.13;;;;;;;;;;5025677;28;20352;-55
2023/03/20 05:50:13;;;;;;;14.32;7.68;;;;;;;;;;5025616;28;20528;-56
2023/03/20 05:52:38;;;;;;;13.45;8.05;;;;;;;;;;5025291;28;20048;-58
2023/03/20 05:55:04;;;;;;;14.80;6.90;;;;;;;;;;5025398;28;20026;-58
2023/03/20 05:57:30;;;;;;;15.10;7.18;;;;;;;;;;5025626;28;20499;-57
2023/03/20 05:59:55;;;;;;;13.32;5.85;;;;;;;;;;5025190;28;20031;-56
2023/03/20 06:02:21;;;;;;;14.15;6.53;;;;;;;;;;5023517;28;20137;-57
2023/03/20 06:04:46;;;;;;;15.80;6.28;;;;;;;;;;5024804;28;20030;-56
2023/03/20 06:07:11;;;;;;;16.13;6.75;;;;;;;;;;5025095;28;20321;-57
2023/03/20 06:09:36;;;;;;;12.95;5.95;;;;;;;;;;5025143;28;20101;-55
2023/03/20 06:12:02;;;;;;;31.38;9.57;;;;;;;;;;5025068;28;20522;-58
2023/03/20 06:14:27;;;;;;;12.32;5.85;;;;;;;;;;5022738;28;20021;-59
2023/03/20 06:16:52;;;;;;;15.38;7.22;;;;;;;;;;5025095;28;20083;-56
2023/03/20 06:19:18;;;;;;;20.10;7.85;;;;;;;;;;5025157;28;20025;-56
2023/03/20 06:21:43;;;;;;;22.17;9.73;;;;;;;;;;5024864;28;20534;-58
2023/03/20 06:24:09;;;;;;;23.08;10.75;;;;;;;;;;5024893;28;20569;-53
2023/03/20 06:26:34;;;;;;;18.98;10.25;;;;;;;;;;5024926;28;20025;-57
2023/03/20 06:29:00;;;;;;;19.90;9.20;;;;;;;;;;5024648;28;20048;-56
2023/03/20 06:31:26;;;;;;;19.45;8.02;;;;;;;;;;5024608;28;20053;-57
2023/03/20 06:33:51;;;;;;;12.15;7.00;;;;;;;;;;5024956;28;20236;-55
2023/03/20 06:36:16;;;;;;;26.38;7.00;;;;;;;;;;5025215;28;20351;-56
2023/03/20 06:38:42;;;;;;;19.55;7.25;;;;;;;;;;5024849;28;20017;-55
2023/03/20 06:41:07;;;;;;;10.82;6.10;;;;;;;;;;5024571;28;20464;-55
2023/03/20 06:43:33;;;;;;;16.75;6.97;;;;;;;;;;5024077;28;20033;-55
2023/03/20 06:45:58;;;;;;;12.68;5.95;;;;;;;;;;5024627;28;20326;-59
2023/03/20 06:48:23;;;;;;;8.50;5.22;;;;;;;;;;5026583;28;20052;-56
2023/03/20 06:50:49;;;;;;;12.93;5.80;;;;;;;;;;5028545;28;20071;-53
2023/03/20 06:53:15;;;;;;;19.60;6.07;;;;;;;;;;5028603;28;20059;-58
2023/03/20 06:55:41;;;;;;;16.17;6.28;;;;;;;;;;5028186;28;20024;-58
2023/03/20 06:58:06;;;;;;;9.40;6.13;;;;;;;;;;5027473;28;20022;-56
2023/03/20 07:00:33;;;;;;;20.63;6.55;;;;;;;;;;5018651;28;20117;-59
2023/03/20 07:02:58;;;;;;;10.75;5.78;;;;;;;;;;5026175;28;20045;-59
2023/03/20 07:05:23;;;;;;;11.75;5.97;;;;;;;;;;5027680;28;20057;-58
2023/03/20 07:07:49;;;;;;;12.35;6.15;;;;;;;;;;5027442;28;20083;-58
2023/03/20 07:10:14;;;;;;;17.02;6.35;;;;;;;;;;5027808;28;20052;-59
2023/03/20 07:12:39;;;;;;;10.15;5.88;;;;;;;;;;5017607;28;20029;-54
2023/03/20 07:15:05;;;;;;;13.13;6.22;;;;;;;;;;5019840;28;20021;-57
2023/03/20 07:17:31;;;;;;;9.48;5.85;;;;;;;;;;5023464;28;20030;-57
2023/03/20 07:19:56;;;;;;;14.77;6.10;;;;;;;;;;5026793;28;20107;-56
2023/03/20 07:22:25;;;;;;;13.60;7.45;;;;;;;;;;5029298;28;20026;-59
2023/03/20 07:24:51;;;;;;;;;;;;;;;;;;5042536;28;20029;-58
2023/03/20 07:27:16;;;;;;;11.23;6.47;;;;;;;;;;5015126;28;19915;-59
2023/03/20 07:29:42;;;;;;;13.05;6.95;;;;;;;;;;5022319;28;20283;-61
2023/03/20 07:32:07;;;;;;;12.60;6.70;;;;;;;;;;5022205;28;20107;-60
2023/03/20 07:34:32;;;;;;;16.33;8.00;;;;;;;;;;5017352;28;20032;-59
2023/03/20 07:36:58;;;;;;;15.98;8.13;;;;;;;;;;5028169;28;20030;-59
2023/03/20 07:39:23;;;;;;;14.65;7.82;;;;;;;;;;5030138;28;20533;-58
2023/03/20 07:41:48;;;;;;;13.30;7.53;;;;;;;;;;5021671;28;20036;-58
2023/03/20 07:44:14;;;;;;;15.85;8.43;;;;;;;;;;5033451;28;20100;-54
2023/03/20 07:46:39;;;;;;;14.23;7.78;;;;;;;;;;5032902;28;20618;-57
2023/03/20 07:49:05;;;;;;;13.98;7.93;;;;;;;;;;5030842;28;20067;-55
2023/03/20 07:51:30;;;;;;;16.05;8.25;;;;;;;;;;5021415;28;20037;-58
2023/03/20 07:53:56;;;;;;;14.50;8.60;;;;;;;;;;5029284;28;20540;-55
2023/03/20 07:56:21;;;;;;;17.40;7.85;;;;;;;;;;5047545;28;20041;-56
2023/03/20 07:58:46;;;;;;;19.38;9.60;;;;;;;;;;5024614;28;20036;-56
2023/03/20 08:01:12;;;;;;;15.80;8.60;;;;;;;;;;5020830;28;20036;-57
2023/03/20 08:03:40;;;;;;;15.98;9.40;;;;;;;;;;5018977;28;20048;-55
2023/03/20 08:06:08;;;;;;;18.95;10.15;;;;;;;;;;5016906;28;20483;-55
2023/03/20 08:08:33;;;;;;;21.90;10.95;;;;;;;;;;5009335;28;20048;-56
2023/03/20 08:10:59;;;;;;;20.02;11.68;;;;;;;;;;5013482;28;20018;-59
2023/03/20 08:13:24;;;;;;;24.00;11.80;;;;;;;;;;5011294;28;20046;-56
2023/03/20 08:15:50;;;;;;;31.50;14.50;;;;;;;;;;5006798;28;20071;-57
2023/03/20 08:18:15;;;;;;;24.42;13.60;;;;;;;;;;5021677;28;20202;-58
2023/03/20 08:20:41;;;;;;;23.33;11.80;;;;;;;;;;5023632;28;20247;-56
2023/03/20 08:23:06;;;;;;;22.20;11.63;;;;;;;;;;5023488;28;20041;-56
2023/03/20 08:25:32;;;;;;;20.63;12.23;;;;;;;;;;5013160;28;20014;-58
2023/03/20 08:27:59;;;;;;;19.98;12.10;;;;;;;;;;5012556;28;20584;-58
2023/03/20 08:30:25;;;;;;;24.77;12.50;;;;;;;;;;5000882;28;20049;-59
2023/03/20 08:32:50;;;;;;;21.20;11.95;;;;;;;;;;5021043;28;20523;-57
2023/03/20 08:35:15;;;;;;;22.67;13.07;;;;;;;;;;5024433;28;20039;-58
2023/03/20 08:37:40;;;;;;;20.10;12.15;;;;;;;;;;5025999;28;20048;-57
2023/03/20 08:40:06;;;;;;;22.35;12.80;;;;;;;;;;5013718;28;20060;-53
2023/03/20 08:42:32;;;;;;;17.58;11.95;;;;;;;;;;5032986;28;20116;-58
2023/03/20 08:44:57;;;;;;;22.70;12.63;;;;;;;;;;5006667;28;20389;-57
2023/03/20 08:47:22;;;;;;;23.95;14.02;;;;;;;;;;5035434;28;20021;-58
2023/03/20 08:49:47;;;;;;;21.67;12.63;;;;;;;;;;5025092;28;20059;-57
2023/03/20 08:52:13;;;;;;;21.98;12.15;;;;;;;;;;5025737;28;20025;-56
2023/03/20 08:54:38;;;;;;;24.88;14.32;;;;;;;;;;5026052;28;20029;-57
2023/03/20 08:57:04;;;;;;;22.65;14.00;;;;;;;;;;5019406;28;20367;-54
2023/03/20 08:59:30;;;;;;;50.55;16.20;;;;;;;;;;5039674;28;20732;-57
2023/03/20 09:01:55;;;;;;;25.08;14.30;;;;;;;;;;5025590;28;20017;-57
2023/03/20 09:04:20;;;;;;;26.05;13.68;;;;;;;;;;5020473;28;20037;-57
2023/03/20 09:06:46;;;;;;;22.85;12.50;;;;;;;;;;5014540;28;20467;-55
2023/03/20 09:09:14;;;;;;;23.08;13.50;;;;;;;;;;5023371;28;20208;-58
2023/03/20 09:11:40;;;;;;;22.98;13.20;;;;;;;;;;5029819;28;20036;-55
2023/03/20 09:14:06;;;;;;;24.60;13.77;;;;;;;;;;5025151;28;20026;-57
2023/03/20 09:16:32;;;;;;;22.05;13.57;;;;;;;;;;5025673;28;20033;-57
2023/03/20 09:18:57;;;;;;;22.50;14.00;;;;;;;;;;5035541;28;20021;-58
2023/03/20 09:21:22;;;;;;;23.40;13.45;;;;;;;;;;5021349;28;20025;-58
2023/03/20 09:23:48;;;;;;;19.58;12.15;;;;;;;;;;5017834;28;20087;-56
2023/03/20 09:26:13;;;;;;;22.83;12.60;;;;;;;;;;5026928;28;20044;-57
2023/03/20 09:28:38;;;;;;;23.75;14.13;;;;;;;;;;5019828;28;20021;-60
2023/03/20 09:31:04;;;;;;;22.83;12.98;;;;;;;;;;5029203;28;20133;-59
2023/03/20 09:33:29;;;;;;;23.40;14.02;;;;;;;;;;5013416;28;20031;-58
2023/03/20 09:35:54;;;;;;;24.80;14.43;;;;;;;;;;5028084;28;20039;-58
2023/03/20 09:38:20;;;;;;;23.35;12.85;;;;;;;;;;5033879;28;20293;-58
2023/03/20 09:40:45;;;;;;;21.38;13.50;;;;;;;;;;5035389;28;20086;-55
2023/03/20 09:43:14;;;;;;;24.23;13.80;;;;;;;;;;5023449;28;20087;-56
2023/03/20 09:45:47;;;;;;;20.42;13.25;;;;;;;;;;5024002;28;20357;-54
2023/03/20 09:48:24;;;;;;;25.15;15.15;;;;;;;;;;5025540;28;20060;-52
2023/03/20 09:51:06;;;;;;;32.20;14.23;;;;;;;;;;5026357;28;20024;-58
2023/03/20 09:53:53;;;;;;;23.48;14.40;;;;;;;;;;5020507;28;20407;-55
2023/03/20 09:56:21;;;;;;;20.08;13.25;;;;;;;;;;5015613;28;20043;-59
2023/03/20 09:58:53;;;;;;;21.88;11.85;;;;;;;;;;5024791;28;20029;-59
2023/03/20 10:01:19;;;;;;;24.48;13.98;;;;;;;;;;5021640;28;20099;-60
2023/03/20 10:04:03;;;;;;;25.27;13.73;;;;;;;;;;5015805;28;20037;-58
2023/03/20 10:06:28;;;;;;;19.98;12.75;;;;;;;;;;5011269;28;20045;-53
2023/03/20 10:08:54;;;;;;;23.43;14.17;;;;;;;;;;5021521;28;20049;-58
2023/03/20 10:11:19;;;;;;;20.45;13.00;;;;;;;;;;5035579;28;20250;-59
2023/03/20 10:14:03;;;;;;;20.25;14.13;;;;;;;;;;5015152;28;20021;-58
2023/03/20 10:16:28;;;;;;;22.38;13.93;;;;;;;;;;5021459;28;20022;-58
2023/03/20 10:18:59;;;;;;;22.00;13.10;;;;;;;;;;5017612;28;20036;-53
2023/03/20 10:21:36;;;;;;;23.45;14.25;;;;;;;;;;5008564;28;20406;-59
2023/03/20 10:24:02;;;;;;;20.90;13.43;;;;;;;;;;5016124;28;20018;-56
2023/03/20 10:26:29;;;;;;;21.52;13.55;;;;;;;;;;5028065;28;20037;-59
2023/03/20 10:28:59;;;;;;;23.45;12.75;;;;;;;;;;5016272;28;20091;-58
2023/03/20 10:31:30;;;;;;;23.30;12.65;;;;;;;;;;5021477;28;20045;-59
2023/03/20 10:34:02;;;;;;;23.30;14.52;;;;;;;;;;5014428;28;20021;-59
2023/03/20 10:36:40;;;;;;;21.35;13.77;;;;;;;;;;5013222;28;20050;-56
2023/03/20 10:39:05;;;;;;;22.73;13.55;;;;;;;;;;5028188;28;20021;-59
2023/03/20 10:41:33;;;;;;;21.50;13.73;;;;;;;;;;5028324;28;20025;-56
2023/03/20 10:43:59;;;;;;;19.83;13.77;;;;;;;;;;5024537;28;20562;-54
2023/03/20 10:46:27;;;;;;;24.90;13.90;;;;;;;;;;5022594;28;20030;-55
2023/03/20 10:48:55;;;;;;;22.08;13.93;;;;;;;;;;5032477;28;20038;-61
2023/03/20 10:51:22;;;;;;;29.80;14.38;;;;;;;;;;5040681;28;20067;-62
2023/03/20 10:53:47;;;;;;;25.15;13.90;;;;;;;;;;5024207;28;20094;-57
2023/03/20 10:56:15;;;;;;;24.33;14.48;;;;;;;;;;5029679;28;20017;-57
2023/03/20 10:58:42;;;;;;;22.27;13.85;;;;;;;;;;5012880;28;20804;-54
2023/03/20 11:01:07;;;;;;;30.20;14.90;;;;;;;;;;5032263;28;20409;-54
2023/03/20 11:03:35;;;;;;;27.63;14.23;;;;;;;;;;5048044;28;20033;-59
2023/03/20 11:06:01;;;;;;;24.90;14.65;;;;;;;;;;5026114;28;20022;-60
2023/03/20 11:08:47;;;;;;;24.83;13.98;;;;;;;;;;5019993;28;20399;-59
2023/03/20 11:11:12;;;;;;;21.65;13.85;;;;;;;;;;5027760;28;20179;-59
2023/03/20 11:13:40;;;;;;;22.42;13.63;;;;;;;;;;5025284;28;20456;-60
2023/03/20 11:16:18;;;;;;;21.90;13.65;;;;;;;;;;5023520;28;20044;-61
2023/03/20 11:18:43;;;;;;;23.10;13.50;;;;;;;;;;5017784;28;20030;-59
2023/03/20 11:21:26;;;;;;;20.23;13.30;;;;;;;;;;5019064;28;20076;-57
2023/03/20 11:23:51;;;;;;;19.30;12.30;;;;;;;;;;5017622;28;20114;-56
2023/03/20 11:26:37;;;;;;;25.92;12.55;;;;;;;;;;5017642;28;20114;-60
2023/03/20 11:29:05;;;;;;;25.00;12.10;;;;;;;;;;5025241;28;20124;-59
2023/03/20 11:31:33;;;;;;;18.77;12.30;;;;;;;;;;5024486;28;20165;-59
2023/03/20 11:34:08;;;;;;;17.98;11.93;;;;;;;;;;5024396;28;20022;-57
2023/03/20 11:36:36;;;;;;;19.60;12.10;;;;;;;;;;5026105;28;20044;-58
2023/03/20 11:39:07;;;;;;;18.88;12.27;;;;;;;;;;5026440;28;20013;-61
2023/03/20 11:41:32;;;;;;;20.65;13.82;;;;;;;;;;5022069;28;20282;-56
2023/03/20 11:43:57;;;;;;;21.30;14.18;;;;;;;;;;5026258;28;20185;-59
2023/03/20 11:46:24;;;;;;;18.98;12.43;;;;;;;;;;5024646;28;20131;-56
2023/03/20 11:49:06;;;;;;;21.85;12.70;;;;;;;;;;5026765;28;20268;-59
2023/03/20 11:51:34;;;;;;;20.40;14.02;;;;;;;;;;5026783;28;20060;-58
2023/03/20 11:54:00;;;;;;;23.42;13.27;;;;;;;;;;5024419;28;20025;-58
2023/03/20 11:56:30;;;;;;;20.25;13.27;;;;;;;;;;5026548;28;20033;-55
2023/03/20 11:58:56;;;;;;;17.05;11.85;;;;;;;;;;5026433;28;20028;-60
2023/03/20 12:01:21;;;;;;;16.77;11.50;;;;;;;;;;5026580;28;20026;-57
2023/03/20 12:03:54;;;;;;;16.55;10.32;;;;;;;;;;5026641;28;20025;-59
2023/03/20 12:06:25;;;;;;;21.02;12.15;;;;;;;;;;5022930;28;20021;-58
2023/03/20 12:08:55;;;;;;;17.60;11.18;;;;;;;;;;5026650;28;20482;-59
2023/03/20 12:11:20;;;;;;;;;;;;;;;;;;5026210;28;20025;-57
2023/03/20 12:13:47;;;;;;;20.52;11.43;;;;;;;;;;5024837;28;19924;-54
2023/03/20 12:16:15;;;;;;;18.27;11.23;;;;;;;;;;5025199;28;20154;-59
2023/03/20 12:18:49;;;;;;;15.83;11.27;;;;;;;;;;5026301;28;20033;-55
2023/03/20 12:21:33;;;;;;;20.85;11.48;;;;;;;;;;5025972;28;20013;-58
2023/03/20 12:24:00;;;;;;;18.92;9.27;;;;;;;;;;5026292;28;20033;-56
2023/03/20 12:26:40;;;;;;;18.67;9.45;;;;;;;;;;5026233;28;20462;-58
2023/03/20 12:29:25;;;;;;;17.63;9.68;;;;;;;;;;5026427;28;20022;-57
2023/03/20 12:31:52;;;;;;;15.52;8.93;;;;;;;;;;5021305;28;20080;-57
2023/03/20 12:34:26;;;;;;;15.15;8.85;;;;;;;;;;5024273;28;20104;-61
2023/03/20 12:36:54;;;;;;;14.52;8.70;;;;;;;;;;5023084;28;20337;-62
2023/03/20 12:39:23;;;;;;;16.08;8.85;;;;;;;;;;5019519;28;20028;-62
2023/03/20 12:41:57;;;;;;;14.40;7.70;;;;;;;;;;5026631;28;20025;-64
2023/03/20 12:44:22;;;;;;;15.30;8.30;;;;;;;;;;5026540;28;20040;-59
2023/03/20 12:46:54;;;;;;;16.30;8.63;;;;;;;;;;5026492;28;20025;-59
2023/03/20 12:49:33;;;;;;;18.08;8.52;;;;;;;;;;5025567;28;20255;-58
2023/03/20 12:52:17;;;;;;;13.23;7.90;;;;;;;;;;5023436;28;20029;-59
2023/03/20 12:54:42;;;;;;;55.35;12.23;;;;;;;;;;5015963;28;20025;-61
2023/03/20 12:57:17;;;;;;;229.03;18.70;;;;;;;;;;5024848;28;20379;-61
2023/03/20 13:00:11;;;;;;;77.90;9.75;;;;;;;;;;5025712;28;20318;-59
2023/03/20 13:02:48;;;;;;;35.80;8.57;;;;;;;;;;4959658;28;20068;-64
2023/03/20 13:05:13;;;;;;;27.33;9.23;;;;;;;;;;4954390;28;20078;-59
2023/03/20 13:07:47;;;;;;;27.50;7.87;;;;;;;;;;4960488;28;20091;-60
2023/03/20 13:10:26;;;;;;;20.17;8.95;;;;;;;;;;4961064;28;20347;-60
2023/03/20 13:13:10;;;;;;;22.20;7.70;;;;;;;;;;4965301;28;20041;-60
2023/03/20 13:16:04;;;;;;;28.15;9.18;;;;;;;;;;4957108;28;20061;-59
2023/03/20 13:18:32;;;;;;;14.93;8.02;;;;;;;;;;4863062;29;20044;-60
2023/03/20 13:20:57;;;;;;;26.63;8.03;;;;;;;;;;4866796;29;20534;-61
2023/03/20 13:23:40;;;;;;;19.70;8.85;;;;;;;;;;4866531;29;20049;-59
2023/03/20 13:26:16;;;;;;;18.10;8.15;;;;;;;;;;4864721;29;20307;-59
2023/03/20 13:28:56;;;;;;;16.05;6.95;;;;;;;;;;4866530;29;20039;-60
2023/03/20 13:31:34;;;;;;;16.33;7.47;;;;;;;;;;4871439;29;20584;-61
2023/03/20 13:34:09;;;;;;;21.05;7.60;;;;;;;;;;4870470;29;20025;-60
2023/03/20 13:36:34;;;;;;;14.27;7.75;;;;;;;;;;4854910;29;20045;-60
2023/03/20 13:39:10;;;;;;;14.65;7.68;;;;;;;;;;4899334;29;20040;-59
2023/03/20 13:41:35;;;;;;;13.57;7.13;;;;;;;;;;4925163;29;20422;-60
2023/03/20 13:44:03;;;;;;;13.30;7.63;;;;;;;;;;4918791;29;20034;-60
2023/03/20 13:46:36;;;;;;;17.02;8.07;;;;;;;;;;4922712;29;20083;-59
2023/03/20 13:49:06;;;;;;;14.60;6.97;;;;;;;;;;4919784;29;20149;-60
2023/03/20 13:51:38;;;;;;;15.15;6.75;;;;;;;;;;4906306;29;20066;-60
2023/03/20 13:54:03;;;;;;;17.13;7.15;;;;;;;;;;4930493;28;20070;-60
2023/03/20 13:56:29;;;;;;;20.05;7.43;;;;;;;;;;5025845;28;20021;-58
2023/03/20 13:59:13;;;;;;;13.87;7.33;;;;;;;;;;5023622;28;20117;-61
2023/03/20 14:01:46;;;;;;;13.98;5.95;;;;;;;;;;5034186;28;20285;-59
2023/03/20 14:04:16;;;;;;;12.70;6.78;;;;;;;;;;5022184;28;20087;-61
2023/03/20 14:06:44;;;;;;;19.42;7.35;;;;;;;;;;5024551;28;20017;-60
2023/03/20 14:09:24;;;;;;;15.82;7.20;;;;;;;;;;5024319;28;20632;-61
2023/03/20 14:11:51;;;;;;;11.63;6.30;;;;;;;;;;5025128;28;20025;-62
2023/03/20 14:14:22;;;;;;;14.02;6.40;;;;;;;;;;5022916;28;20025;-62
2023/03/20 14:16:47;;;;;;;18.25;7.32;;;;;;;;;;5024463;28;20120;-62
2023/03/20 14:19:17;;;;;;;16.55;7.25;;;;;;;;;;5024614;28;20038;-62
2023/03/20 14:21:52;;;;;;;18.98;7.32;;;;;;;;;;5024500;28;20113;-59
2023/03/20 14:24:19;;;;;;;16.45;7.25;;;;;;;;;;5022354;28;20725;-59
2023/03/20 14:26:49;;;;;;;14.75;6.65;;;;;;;;;;5029426;28;20017;-63
2023/03/20 14:29:14;;;;;;;17.15;7.30;;;;;;;;;;5038307;28;20124;-55
2023/03/20 14:31:41;;;;;;;13.27;7.63;;;;;;;;;;5012093;28;20132;-59